createdAt,value
2019-04-21T00:01:52.208Z,46.73
2019-04-21T00:04:33.178Z,46.29
2019-04-21T00:07:13.185Z,46.02
2019-04-21T00:12:18.116Z,46.30
2019-04-21T00:14:47.131Z,46.36
2019-04-21T00:17:11.443Z,46.60
2019-04-21T00:19:49.548Z,46.39
2019-04-21T00:22:34.497Z,46.37
2019-04-21T00:25:11.886Z,46.06
2019-04-21T00:27:44.255Z,46.51
2019-04-21T00:30:21.794Z,46.73
2019-04-21T00:32:46.542Z,46.63
2019-04-21T00:35:13.173Z,46.19
2019-04-21T00:38:00.530Z,46.81
2019-04-21T00:40:34.662Z,46.42
2019-04-21T00:43:04.965Z,46.54
2019-04-21T00:45:31.401Z,46.62
2019-04-21T00:48:10.095Z,46.26
2019-04-21T00:51:03.522Z,47.20
2019-04-21T00:53:32.107Z,46.86
2019-04-21T00:56:05.779Z,47.26
2019-04-21T00:58:36.024Z,47.11
2019-04-21T01:01:04.455Z,47.67
2019-04-21T01:03:37.304Z,48.10
2019-04-21T01:06:11.035Z,47.72
2019-04-21T01:08:44.099Z,47.92
2019-04-21T01:11:15.629Z,48.37
2019-04-21T01:13:56.781Z,48.64
2019-04-21T01:16:21.879Z,48.27
2019-04-21T01:18:49.344Z,48.07
2019-04-21T01:21:13.582Z,48.19
2019-04-21T01:23:36.143Z,48.87
2019-04-21T01:26:24.915Z,50.19
2019-04-21T01:28:56.493Z,49.48
2019-04-21T01:31:30.618Z,50.29
2019-04-21T01:34:08.338Z,49.07
2019-04-21T01:36:36.597Z,48.61
2019-04-21T01:39:13.685Z,48.83
2019-04-21T01:41:44.776Z,48.96
2019-04-21T01:44:15.886Z,48.84
2019-04-21T01:46:45.878Z,49.15
2019-04-21T01:49:11.562Z,49.37
2019-04-21T01:52:13.565Z,49.16
2019-04-21T01:54:52.253Z,49.09
2019-04-21T01:57:25.944Z,49.96
2019-04-21T01:59:54.935Z,49.85
2019-04-21T02:02:41.433Z,49.87
2019-04-21T02:05:11.722Z,49.89
2019-04-21T02:07:38.993Z,50.31
2019-04-21T02:10:19.493Z,50.02
2019-04-21T02:12:45.924Z,51.47
2019-04-21T02:15:27.596Z,51.03
2019-04-21T02:17:53.739Z,51.00
2019-04-21T02:20:19.226Z,51.12
2019-04-21T02:23:12.786Z,50.62
2019-04-21T02:25:31.810Z,50.46
2019-04-21T02:28:03.259Z,50.12
2019-04-21T02:33:32.296Z,50.60
2019-04-21T02:36:10.723Z,50.31
2019-04-21T02:38:34.298Z,50.58
2019-04-21T02:40:57.264Z,52.27
2019-04-21T02:43:24.897Z,51.89
2019-04-21T02:46:09.671Z,51.37
2019-04-21T02:48:52.828Z,51.72
2019-04-21T02:51:12.591Z,51.87
2019-04-21T02:53:53.643Z,51.54
2019-04-21T02:56:18.065Z,51.42
2019-04-21T02:59:01.905Z,52.07
2019-04-21T03:02:04.030Z,51.61
2019-04-21T03:04:34.825Z,51.61
2019-04-21T03:12:43.847Z,52.67
2019-04-21T03:22:31.737Z,52.76
2019-04-21T03:25:33.626Z,53.17
2019-04-21T03:27:52.784Z,53.29
2019-04-21T03:31:02.558Z,52.01
2019-04-21T03:37:56.134Z,53.27
2019-04-21T03:40:18.747Z,52.54
2019-04-21T03:42:57.213Z,52.47
2019-04-21T03:48:01.301Z,52.62
2019-04-21T03:50:33.733Z,52.73
2019-04-21T03:53:16.807Z,52.42
2019-04-21T03:58:24.023Z,52.15
2019-04-21T04:04:29.499Z,53.36
2019-04-21T04:09:52.346Z,53.25
2019-04-21T04:12:06.022Z,53.40
2019-04-21T04:14:47.321Z,53.37
2019-04-21T04:19:44.899Z,53.69
2019-04-21T04:22:30.953Z,54.00
2019-04-21T04:25:02.940Z,54.61
2019-04-21T04:29:59.308Z,54.31
2019-04-21T04:32:41.933Z,53.71
2019-04-21T04:35:14.508Z,54.12
2019-04-21T04:37:36.752Z,53.78
2019-04-21T04:40:14.222Z,54.32
2019-04-21T04:43:13.222Z,54.61
2019-04-21T04:45:55.764Z,54.96
2019-04-21T04:48:19.394Z,53.37
2019-04-21T04:53:32.827Z,54.25
2019-04-21T04:58:29.254Z,54.69
2019-04-21T05:01:04.736Z,55.08
2019-04-21T05:03:46.689Z,55.01
2019-04-21T05:21:50.526Z,55.05
2019-04-21T05:24:10.833Z,55.92
2019-04-21T05:26:43.442Z,53.63
2019-04-21T05:29:10.598Z,53.63
2019-04-21T05:32:17.181Z,53.34
2019-04-21T05:35:01.558Z,53.08
2019-04-21T05:37:56.152Z,52.45
2019-04-21T05:40:28.682Z,51.46
2019-04-21T05:43:04.418Z,53.25
2019-04-21T05:45:40.563Z,50.74
2019-04-21T05:48:37.829Z,51.29
2019-04-21T05:51:00.179Z,50.67
2019-04-21T05:53:39.334Z,48.94
2019-04-21T05:56:09.981Z,49.57
2019-04-21T05:58:46.630Z,48.19
2019-04-21T06:01:23.872Z,48.13
2019-04-21T06:03:49.195Z,49.30
2019-04-21T06:06:30.759Z,47.88
2019-04-21T06:08:53.930Z,47.41
2019-04-21T06:14:02.646Z,47.27
2019-04-21T06:16:36.487Z,46.65
2019-04-21T06:19:05.042Z,46.15
2019-04-21T06:21:39.286Z,45.73
2019-04-21T06:24:10.111Z,45.55
2019-04-21T06:26:59.239Z,45.04
2019-04-21T06:29:17.649Z,44.88
2019-04-21T06:32:12.701Z,44.69
2019-04-21T06:34:24.611Z,44.61
2019-04-21T06:40:07.622Z,43.84
2019-04-21T06:42:28.508Z,42.85
2019-04-21T06:45:05.878Z,42.55
2019-04-21T06:47:35.075Z,42.16
2019-04-21T06:50:00.439Z,42.69
2019-04-21T06:55:13.836Z,40.88
2019-04-21T06:57:44.414Z,41.10
2019-04-21T07:00:15.113Z,39.75
2019-04-21T07:03:02.122Z,39.27
2019-04-21T07:05:20.512Z,38.50
2019-04-21T07:08:11.346Z,38.83
2019-04-21T07:10:26.042Z,38.32
2019-04-21T07:12:57.570Z,36.99
2019-04-21T07:15:30.405Z,26.65
2019-04-21T07:18:04.424Z,28.13
2019-04-21T07:20:38.385Z,30.30
2019-04-21T07:23:09.299Z,32.21
2019-04-21T07:25:45.821Z,34.59
2019-04-21T07:28:20.947Z,34.33
2019-04-21T07:30:51.593Z,34.76
2019-04-21T07:33:41.279Z,36.90
2019-04-21T07:35:57.860Z,35.64
2019-04-21T07:38:28.637Z,35.44
2019-04-21T07:40:54.512Z,36.97
2019-04-21T07:43:25.966Z,34.02
2019-04-21T07:45:58.813Z,33.05
2019-04-21T07:48:49.545Z,33.71
2019-04-21T07:51:37.778Z,34.68
2019-04-21T07:54:13.958Z,35.35
2019-04-21T07:56:24.490Z,34.62
2019-04-21T07:59:19.339Z,33.17
2019-04-21T08:01:50.373Z,32.44
2019-04-21T08:04:38.259Z,32.16
2019-04-21T08:06:51.900Z,33.97
2019-04-21T08:09:28.127Z,35.17
2019-04-21T08:11:54.285Z,34.78
2019-04-21T08:14:55.751Z,32.40
2019-04-21T08:17:07.363Z,33.34
2019-04-21T08:19:37.010Z,32.32
2019-04-21T08:22:14.026Z,32.25
2019-04-21T08:24:45.223Z,32.02
2019-04-21T08:27:17.735Z,32.27
2019-04-21T08:32:31.666Z,33.04
2019-04-21T08:35:08.419Z,33.52
2019-04-21T08:37:27.625Z,32.58
2019-04-21T08:40:21.450Z,32.87
2019-04-21T08:42:30.457Z,29.89
2019-04-21T08:45:09.435Z,29.17
2019-04-21T08:47:41.402Z,28.04
2019-04-21T08:50:11.228Z,28.80
2019-04-21T08:55:33.428Z,28.79
2019-04-21T08:58:30.907Z,29.65
2019-04-21T09:01:00.854Z,29.10
2019-04-21T09:03:54.029Z,28.36
2019-04-21T09:06:40.391Z,29.61
2019-04-21T09:08:58.938Z,29.93
2019-04-21T09:11:22.591Z,26.46
2019-04-21T09:14:01.344Z,27.34
2019-04-21T09:16:30.937Z,25.52
2019-04-21T09:18:58.070Z,22.98
2019-04-21T09:21:42.397Z,22.48
2019-04-21T09:24:12.511Z,23.17
2019-04-21T09:26:43.527Z,22.89
2019-04-21T09:29:14.032Z,21.98
2019-04-21T09:31:39.147Z,22.17
2019-04-21T09:34:08.417Z,21.42
2019-04-21T09:36:45.970Z,20.50
2019-04-21T09:39:18.253Z,20.18
2019-04-21T09:41:51.187Z,19.95
2019-04-21T09:44:25.407Z,21.46
2019-04-21T09:46:56.356Z,20.95
2019-04-21T09:49:30.876Z,20.58
2019-04-21T09:51:59.847Z,21.43
2019-04-21T09:54:34.007Z,21.24
2019-04-21T09:57:08.929Z,20.76
2019-04-21T09:59:40.317Z,20.46
2019-04-21T10:02:17.462Z,21.28
2019-04-21T10:04:42.441Z,20.88
2019-04-21T10:07:24.648Z,20.39
2019-04-21T10:09:47.781Z,20.50
2019-04-21T10:12:20.004Z,19.88
2019-04-21T10:14:51.837Z,19.82
2019-04-21T10:17:29.309Z,20.28
2019-04-21T10:20:00.781Z,21.16
2019-04-21T10:22:33.008Z,20.46
2019-04-21T10:25:05.261Z,20.88
2019-04-21T10:27:36.953Z,20.40
2019-04-21T10:30:10.404Z,21.01
2019-04-21T10:32:42.679Z,20.46
2019-04-21T10:35:15.250Z,21.08
2019-04-21T10:38:01.423Z,20.55
2019-04-21T10:40:21.280Z,20.95
2019-04-21T10:42:54.140Z,19.72
2019-04-21T10:45:25.424Z,19.73
2019-04-21T10:47:56.887Z,19.92
2019-04-21T10:50:28.735Z,19.99
2019-04-21T10:53:04.839Z,21.48
2019-04-21T10:55:53.267Z,18.86
2019-04-21T10:58:11.031Z,19.82
2019-04-21T11:00:44.054Z,19.26
2019-04-21T11:03:43.150Z,21.08
2019-04-21T11:06:17.243Z,19.97
2019-04-21T11:08:51.041Z,20.87
2019-04-21T11:11:21.754Z,20.74
2019-04-21T11:13:52.966Z,20.24
2019-04-21T11:16:24.054Z,20.25
2019-04-21T11:18:55.964Z,20.70
2019-04-21T11:21:27.381Z,21.24
2019-04-21T11:23:58.520Z,20.62
2019-04-21T11:26:29.956Z,20.78
2019-04-21T11:29:01.179Z,19.72
2019-04-21T11:31:33.429Z,19.56
2019-04-21T11:34:05.208Z,20.29
2019-04-21T11:36:37.461Z,19.56
2019-04-21T11:39:35.248Z,19.68
2019-04-21T11:41:57.683Z,20.01
2019-04-21T11:44:29.089Z,20.41
2019-04-21T11:47:00.609Z,21.27
2019-04-21T11:49:32.600Z,20.82
2019-04-21T11:52:04.803Z,20.68
2019-04-21T11:54:37.074Z,21.66
2019-04-21T11:57:15.175Z,19.97
2019-04-21T11:59:41.699Z,20.47
2019-04-21T12:02:12.873Z,20.29
2019-04-21T12:04:43.913Z,20.83
2019-04-21T12:07:15.850Z,20.83
2019-04-21T12:09:47.912Z,20.20
2019-04-21T12:12:19.195Z,19.99
2019-04-21T12:14:50.360Z,20.54
2019-04-21T12:17:21.330Z,20.30
2019-04-21T12:19:52.695Z,19.60
2019-04-21T12:22:28.943Z,19.75
2019-04-21T12:24:57.526Z,19.09
2019-04-21T12:27:29.840Z,19.56
2019-04-21T12:30:02.058Z,20.15
2019-04-21T12:32:48.459Z,20.13
2019-04-21T12:35:21.846Z,20.07
2019-04-21T12:37:53.216Z,19.76
2019-04-21T12:40:26.405Z,19.47
2019-04-21T12:42:58.805Z,18.71
2019-04-21T12:45:31.511Z,18.67
2019-04-21T12:48:04.254Z,18.68
2019-04-21T12:50:36.567Z,19.22
2019-04-21T12:53:07.698Z,19.61
2019-04-21T12:55:42.765Z,19.29
2019-04-21T12:58:11.539Z,18.49
2019-04-21T13:00:42.937Z,18.83
2019-04-21T13:03:14.302Z,18.25
2019-04-21T13:05:45.434Z,19.15
2019-04-21T13:08:17.675Z,18.62
2019-04-21T13:10:48.830Z,17.94
2019-04-21T13:13:19.877Z,17.98
2019-04-21T13:15:51.680Z,18.70
2019-04-21T13:18:22.856Z,18.35
2019-04-21T13:20:54.102Z,18.46
2019-04-21T13:23:25.158Z,18.23
2019-04-21T13:25:56.214Z,18.39
2019-04-21T13:28:28.289Z,18.25
2019-04-21T13:31:00.179Z,18.30
2019-04-21T13:33:31.327Z,17.56
2019-04-21T13:36:02.872Z,17.74
2019-04-21T13:38:42.822Z,17.29
2019-04-21T13:41:30.896Z,17.63
2019-04-21T13:43:50.866Z,17.50
2019-04-21T13:46:22.803Z,17.99
2019-04-21T13:48:54.805Z,17.05
2019-04-21T13:51:27.028Z,17.00
2019-04-21T13:53:58.083Z,17.36
2019-04-21T13:56:30.205Z,16.80
2019-04-21T13:59:02.256Z,16.94
2019-04-21T14:01:34.017Z,17.50
2019-04-21T14:04:05.625Z,17.37
2019-04-21T14:06:36.638Z,17.06
2019-04-21T14:09:10.879Z,17.29
2019-04-21T14:11:43.715Z,16.44
2019-04-21T14:14:14.821Z,16.85
2019-04-21T14:16:45.945Z,17.69
2019-04-21T14:19:17.277Z,17.05
2019-04-21T14:21:51.139Z,17.13
2019-04-21T14:24:20.972Z,17.36
2019-04-21T14:26:52.259Z,17.73
2019-04-21T14:29:23.869Z,17.70
2019-04-21T14:31:56.049Z,17.40
2019-04-21T14:34:28.127Z,17.15
2019-04-21T14:36:59.337Z,17.19
2019-04-21T14:39:30.431Z,17.15
2019-04-21T14:42:02.274Z,17.53
2019-04-21T14:44:33.587Z,18.08
2019-04-21T14:47:15.720Z,17.37
2019-04-21T14:50:07.093Z,18.28
2019-04-21T14:52:39.155Z,18.06
2019-04-21T14:55:22.883Z,17.16
2019-04-21T14:57:54.918Z,17.53
2019-04-21T15:00:33.258Z,17.87
2019-04-21T15:03:05.589Z,18.47
2019-04-21T15:05:37.629Z,18.57
2019-04-21T15:08:09.145Z,18.93
2019-04-21T15:10:40.940Z,19.08
2019-04-21T15:13:11.988Z,18.76
2019-04-21T15:15:44.096Z,18.81
2019-04-21T15:18:16.770Z,18.07
2019-04-21T15:20:50.046Z,18.61
2019-04-21T15:23:24.437Z,18.04
2019-04-21T15:25:54.331Z,18.11
2019-04-21T15:28:28.387Z,18.44
2019-04-21T15:30:58.668Z,18.07
2019-04-21T15:33:30.651Z,19.67
2019-04-21T15:36:02.941Z,18.72
2019-04-21T15:38:34.206Z,19.17
2019-04-21T15:41:10.078Z,18.67
2019-04-21T15:43:38.565Z,18.87
2019-04-21T15:46:10.975Z,19.60
2019-04-21T15:48:42.363Z,19.46
2019-04-21T15:51:13.630Z,20.26
2019-04-21T15:53:45.842Z,20.13
2019-04-21T15:56:22.736Z,19.69
2019-04-21T15:59:10.534Z,19.25
2019-04-21T16:02:01.019Z,20.15
2019-04-21T16:04:32.662Z,20.07
2019-04-21T16:07:04.071Z,19.97
2019-04-21T16:09:37.334Z,19.33
2019-04-21T16:12:07.879Z,19.54
2019-04-21T16:14:38.870Z,19.88
2019-04-21T16:17:11.651Z,19.56
2019-04-21T16:19:43.826Z,20.56
2019-04-21T16:22:14.929Z,19.73
2019-04-21T16:24:47.716Z,19.79
2019-04-21T16:27:19.771Z,21.16
2019-04-21T16:29:52.156Z,20.23
2019-04-21T16:32:24.035Z,20.09
2019-04-21T16:35:01.527Z,20.36
2019-04-21T16:37:27.877Z,19.87
2019-04-21T16:39:59.138Z,19.64
2019-04-21T16:42:30.324Z,20.35
2019-04-21T16:45:01.317Z,20.29
2019-04-21T16:47:32.511Z,20.15
2019-04-21T16:50:03.752Z,20.83
2019-04-21T16:52:49.915Z,19.65
2019-04-21T16:55:37.068Z,19.93
2019-04-21T16:58:45.358Z,19.97
2019-04-21T17:01:24.272Z,20.00
2019-04-21T17:03:55.325Z,20.07
2019-04-21T17:06:27.045Z,20.04
2019-04-21T17:08:58.965Z,20.98
2019-04-21T17:11:33.643Z,21.09
2019-04-21T17:14:03.541Z,21.02
2019-04-21T17:17:16.167Z,20.65
2019-04-21T17:19:15.909Z,21.28
2019-04-21T17:21:41.656Z,21.70
2019-04-21T17:24:14.453Z,21.38
2019-04-21T17:26:46.496Z,22.10
2019-04-21T17:29:18.793Z,21.93
2019-04-21T17:31:49.928Z,21.76
2019-04-21T17:34:24.932Z,21.63
2019-04-21T17:36:55.057Z,21.80
2019-04-21T17:39:26.989Z,21.20
2019-04-21T17:42:11.713Z,21.04
2019-04-21T17:44:30.928Z,21.10
2019-04-21T17:47:05.666Z,21.41
2019-04-21T17:49:34.930Z,21.44
2019-04-21T17:52:18.164Z,21.89
2019-04-21T17:55:07.584Z,21.80
2019-04-21T17:57:48.490Z,21.37
2019-04-21T18:00:43.296Z,21.38
2019-04-21T18:03:00.500Z,21.87
2019-04-21T18:05:31.961Z,21.84
2019-04-21T18:08:02.087Z,21.84
2019-04-21T18:10:34.871Z,21.85
2019-04-21T18:13:01.365Z,21.75
2019-04-21T18:15:42.409Z,21.94
2019-04-21T18:17:58.755Z,22.32
2019-04-21T18:20:32.518Z,22.22
2019-04-21T18:23:38.231Z,23.12
2019-04-21T18:26:01.978Z,22.96
2019-04-21T18:28:26.510Z,23.16
2019-04-21T18:31:04.559Z,23.65
2019-04-21T18:33:40.898Z,24.92
2019-04-21T18:36:25.019Z,25.77
2019-04-21T18:39:33.657Z,25.28
2019-04-21T18:42:15.293Z,25.05
2019-04-21T18:45:38.743Z,25.11
2019-04-21T18:47:59.485Z,25.68
2019-04-21T18:51:02.625Z,25.47
2019-04-21T18:53:46.583Z,25.46
2019-04-21T18:56:08.310Z,27.08
2019-04-21T18:58:38.262Z,26.83
2019-04-21T19:01:14.895Z,25.37
2019-04-21T19:03:47.085Z,25.63
2019-04-21T19:06:20.560Z,26.54
2019-04-21T19:09:21.662Z,26.91
2019-04-21T19:11:34.673Z,26.91
2019-04-21T19:14:26.015Z,27.83
2019-04-21T19:21:55.237Z,28.89
2019-04-21T19:24:29.101Z,29.52
2019-04-21T19:32:08.794Z,29.81
2019-04-21T19:34:24.509Z,30.16
2019-04-21T19:37:00.712Z,30.26
2019-04-21T19:39:39.238Z,30.48
2019-04-21T19:42:08.630Z,30.62
2019-04-21T19:44:47.094Z,30.41
2019-04-21T19:47:28.364Z,30.51
2019-04-21T19:49:58.760Z,30.54
2019-04-21T19:52:23.656Z,31.02
2019-04-21T19:54:46.753Z,31.44
2019-04-21T19:57:16.716Z,31.58
2019-04-21T19:59:51.847Z,32.29
2019-04-21T20:02:20.525Z,31.45
2019-04-21T20:04:59.628Z,31.98
2019-04-21T20:07:41.559Z,32.07
2019-04-21T20:10:21.297Z,31.59
2019-04-21T20:12:48.710Z,32.09
2019-04-21T20:17:52.994Z,32.59
2019-04-21T20:20:11.206Z,33.07
2019-04-21T20:22:46.821Z,33.43
2019-04-21T20:25:19.169Z,33.78
2019-04-21T20:27:55.459Z,33.78
2019-04-21T20:30:40.840Z,34.69
2019-04-21T20:33:35.271Z,35.33
2019-04-21T20:35:51.993Z,34.74
2019-04-21T20:38:12.596Z,35.72
2019-04-21T20:40:42.791Z,36.03
2019-04-21T20:43:28.571Z,36.20
2019-04-21T20:46:00.585Z,35.44
2019-04-21T20:48:25.257Z,35.88
2019-04-21T20:51:05.109Z,36.54
2019-04-21T20:53:31.309Z,37.21
2019-04-21T20:56:02.331Z,37.29
2019-04-21T20:58:40.799Z,37.70
2019-04-21T21:01:25.700Z,36.93
2019-04-21T21:03:43.215Z,37.69
2019-04-21T21:06:18.742Z,37.51
2019-04-21T21:08:50.192Z,37.01
2019-04-21T21:11:24.389Z,36.64
2019-04-21T21:13:58.733Z,36.11
2019-04-21T21:16:36.858Z,35.82
2019-04-21T21:19:10.604Z,36.41
2019-04-21T21:21:38.776Z,36.95
2019-04-21T21:24:08.744Z,36.59
2019-04-21T21:26:44.112Z,36.69
2019-04-21T21:29:06.749Z,37.25
2019-04-21T21:31:49.077Z,37.09
2019-04-21T21:34:20.899Z,38.00
2019-04-21T21:36:57.608Z,38.11
2019-04-21T21:39:21.343Z,38.19
2019-04-21T21:41:49.775Z,38.95
2019-04-21T21:44:19.741Z,39.05
2019-04-21T21:47:04.388Z,38.34
2019-04-21T21:49:35.479Z,37.64
2019-04-21T21:52:04.482Z,37.11
2019-04-21T21:54:27.632Z,38.74
2019-04-21T21:56:58.896Z,39.98
2019-04-21T21:59:32.980Z,39.76
2019-04-21T22:02:09.545Z,39.90
2019-04-21T22:04:50.910Z,39.40
2019-04-21T22:07:17.126Z,40.58
2019-04-21T22:09:46.217Z,39.61
2019-04-21T22:12:18.178Z,40.60
2019-04-21T22:14:52.451Z,39.90
2019-04-21T22:17:36.886Z,39.71
2019-04-21T22:20:16.702Z,39.61
2019-04-21T22:22:41.921Z,40.19
2019-04-21T22:25:10.121Z,40.53
2019-04-21T22:27:32.921Z,40.52
2019-04-21T22:30:07.807Z,39.74
2019-04-21T22:32:38.243Z,40.23
2019-04-21T22:35:22.059Z,40.30
2019-04-21T22:37:54.814Z,39.52
2019-04-21T22:40:29.095Z,39.88
2019-04-21T22:43:04.454Z,40.52
2019-04-21T22:45:24.889Z,41.67
2019-04-21T22:48:05.318Z,41.99
2019-04-21T22:50:32.909Z,41.93
2019-04-21T22:53:07.765Z,41.47
2019-04-21T22:55:37.205Z,42.49
2019-04-21T22:58:09.599Z,43.66
2019-04-21T23:00:46.046Z,42.54
2019-04-21T23:03:21.322Z,42.70
2019-04-21T23:05:50.353Z,42.66
2019-04-21T23:08:26.587Z,43.22
2019-04-21T23:11:00.884Z,44.04
2019-04-21T23:13:28.566Z,44.32
2019-04-21T23:16:01.463Z,44.15
2019-04-21T23:18:46.115Z,44.06
2019-04-21T23:21:17.395Z,43.64
2019-04-21T23:23:57.945Z,44.23
2019-04-21T23:26:35.914Z,43.52
2019-04-21T23:29:01.903Z,43.91
2019-04-21T23:31:37.171Z,44.34
2019-04-21T23:33:50.377Z,44.39
2019-04-21T23:36:26.299Z,44.17
2019-04-21T23:38:56.682Z,45.01
2019-04-21T23:41:33.484Z,44.58
2019-04-21T23:44:05.893Z,45.81
2019-04-21T23:46:35.264Z,45.31
2019-04-21T23:49:18.547Z,45.10
2019-04-21T23:51:47.022Z,45.13
2019-04-21T23:54:11.387Z,44.71
2019-04-21T23:56:45.635Z,45.24
2019-04-21T23:59:17.811Z,45.07
